sensor_id;sensor_type;location;lat;lon;timestamp;P1;durP1;ratioP1;P2;durP2;ratioP2
60086;SDS011;45960;53.630;55.972;2022-10-16T00:00:43;5.78;;;2.97;;
60086;SDS011;45960;53.630;55.972;2022-10-16T00:01:45;4.25;;;2.40;;
60086;SDS011;45960;53.630;55.972;2022-10-16T00:02:47;3.30;;;2.10;;
60086;SDS011;45960;53.630;55.972;2022-10-16T00:03:48;7.18;;;2.80;;
60086;SDS011;45960;53.630;55.972;2022-10-16T00:04:50;4.55;;;2.78;;
60086;SDS011;45960;53.630;55.972;2022-10-16T00:05:51;5.03;;;2.80;;
60086;SDS011;45960;53.630;55.972;2022-10-16T00:06:52;5.13;;;2.47;;
60086;SDS011;45960;53.630;55.972;2022-10-16T00:07:53;3.90;;;2.13;;
60086;SDS011;45960;53.630;55.972;2022-10-16T00:08:54;4.47;;;2.33;;
60086;SDS011;45960;53.630;55.972;2022-10-16T00:09:56;4.72;;;2.30;;
60086;SDS011;45960;53.630;55.972;2022-10-16T00:11:00;4.97;;;2.10;;
60086;SDS011;45960;53.630;55.972;2022-10-16T00:12:04;5.85;;;2.72;;
60086;SDS011;45960;53.630;55.972;2022-10-16T00:13:07;5.32;;;2.70;;
60086;SDS011;45960;53.630;55.972;2022-10-16T00:14:10;4.43;;;2.38;;
60086;SDS011;45960;53.630;55.972;2022-10-16T00:15:13;6.03;;;3.05;;
60086;SDS011;45960;53.630;55.972;2022-10-16T00:16:14;5.53;;;2.78;;
60086;SDS011;45960;53.630;55.972;2022-10-16T00:17:16;5.13;;;2.70;;
60086;SDS011;45960;53.630;55.972;2022-10-16T00:18:18;6.40;;;2.80;;
60086;SDS011;45960;53.630;55.972;2022-10-16T00:19:19;5.15;;;2.47;;
60086;SDS011;45960;53.630;55.972;2022-10-16T00:20:20;4.28;;;2.85;;
60086;SDS011;45960;53.630;55.972;2022-10-16T00:21:39;4.20;;;2.35;;
60086;SDS011;45960;53.630;55.972;2022-10-16T00:22:59;5.80;;;3.08;;
60086;SDS011;45960;53.630;55.972;2022-10-16T00:24:01;5.13;;;2.80;;
60086;SDS011;45960;53.630;55.972;2022-10-16T00:25:04;5.25;;;3.00;;
60086;SDS011;45960;53.630;55.972;2022-10-16T00:26:07;5.53;;;2.90;;
60086;SDS011;45960;53.630;55.972;2022-10-16T00:27:09;8.98;;;2.53;;
60086;SDS011;45960;53.630;55.972;2022-10-16T00:28:10;6.30;;;2.30;;
60086;SDS011;45960;53.630;55.972;2022-10-16T00:29:11;6.20;;;2.53;;
60086;SDS011;45960;53.630;55.972;2022-10-16T00:30:12;2.90;;;1.90;;
60086;SDS011;45960;53.630;55.972;2022-10-16T00:31:14;5.80;;;2.42;;
60086;SDS011;45960;53.630;55.972;2022-10-16T00:32:16;4.10;;;2.17;;
60086;SDS011;45960;53.630;55.972;2022-10-16T00:33:18;7.03;;;2.00;;
60086;SDS011;45960;53.630;55.972;2022-10-16T00:34:20;4.82;;;2.00;;
60086;SDS011;45960;53.630;55.972;2022-10-16T00:35:21;3.70;;;1.90;;
60086;SDS011;45960;53.630;55.972;2022-10-16T00:36:23;7.97;;;2.33;;
60086;SDS011;45960;53.630;55.972;2022-10-16T00:37:25;4.25;;;2.15;;
60086;SDS011;45960;53.630;55.972;2022-10-16T00:38:26;3.10;;;2.03;;
60086;SDS011;45960;53.630;55.972;2022-10-16T00:39:28;5.65;;;2.20;;
60086;SDS011;45960;53.630;55.972;2022-10-16T00:40:29;2.72;;;1.92;;
60086;SDS011;45960;53.630;55.972;2022-10-16T00:41:30;5.22;;;1.95;;
60086;SDS011;45960;53.630;55.972;2022-10-16T00:42:32;6.95;;;2.20;;
60086;SDS011;45960;53.630;55.972;2022-10-16T00:43:38;4.28;;;2.10;;
60086;SDS011;45960;53.630;55.972;2022-10-16T00:45:45;3.17;;;2.45;;
60086;SDS011;45960;53.630;55.972;2022-10-16T00:46:46;3.20;;;1.65;;
60086;SDS011;45960;53.630;55.972;2022-10-16T00:47:47;4.55;;;2.25;;
60086;SDS011;45960;53.630;55.972;2022-10-16T00:51:35;4.03;;;1.67;;
60086;SDS011;45960;53.630;55.972;2022-10-16T00:52:43;4.20;;;2.05;;
60086;SDS011;45960;53.630;55.972;2022-10-16T00:53:46;3.88;;;2.15;;
60086;SDS011;45960;53.630;55.972;2022-10-16T00:54:49;5.03;;;2.10;;
60086;SDS011;45960;53.630;55.972;2022-10-16T00:55:53;7.90;;;2.28;;
60086;SDS011;45960;53.630;55.972;2022-10-16T00:56:55;4.65;;;2.10;;
60086;SDS011;45960;53.630;55.972;2022-10-16T00:57:59;2.85;;;2.17;;
60086;SDS011;45960;53.630;55.972;2022-10-16T00:59:01;5.80;;;2.10;;
60086;SDS011;45960;53.630;55.972;2022-10-16T01:00:09;6.30;;;2.20;;
60086;SDS011;45960;53.630;55.972;2022-10-16T01:01:11;4.97;;;2.00;;
60086;SDS011;45960;53.630;55.972;2022-10-16T01:02:15;4.78;;;2.25;;
60086;SDS011;45960;53.630;55.972;2022-10-16T01:03:31;7.30;;;2.47;;
60086;SDS011;45960;53.630;55.972;2022-10-16T01:04:37;3.58;;;2.28;;
60086;SDS011;45960;53.630;55.972;2022-10-16T01:05:51;4.80;;;2.10;;
60086;SDS011;45960;53.630;55.972;2022-10-16T01:08:44;6.90;;;2.25;;
60086;SDS011;45960;53.630;55.972;2022-10-16T01:10:24;4.72;;;2.80;;
60086;SDS011;45960;53.630;55.972;2022-10-16T01:11:41;4.90;;;2.72;;
60086;SDS011;45960;53.630;55.972;2022-10-16T01:13:55;6.28;;;3.10;;
60086;SDS011;45960;53.630;55.972;2022-10-16T01:15:01;5.18;;;2.90;;
60086;SDS011;45960;53.630;55.972;2022-10-16T01:16:15;9.40;;;2.83;;
60086;SDS011;45960;53.630;55.972;2022-10-16T01:17:33;7.47;;;3.42;;
60086;SDS011;45960;53.630;55.972;2022-10-16T01:18:52;6.53;;;3.13;;
60086;SDS011;45960;53.630;55.972;2022-10-16T01:21:13;8.70;;;3.40;;
60086;SDS011;45960;53.630;55.972;2022-10-16T01:22:20;8.00;;;3.58;;
60086;SDS011;45960;53.630;55.972;2022-10-16T01:24:49;7.28;;;3.70;;
60086;SDS011;45960;53.630;55.972;2022-10-16T01:28:21;11.52;;;3.70;;
60086;SDS011;45960;53.630;55.972;2022-10-16T01:29:39;13.13;;;3.70;;
60086;SDS011;45960;53.630;55.972;2022-10-16T01:30:55;10.43;;;3.55;;
60086;SDS011;45960;53.630;55.972;2022-10-16T01:32:01;5.88;;;3.28;;
60086;SDS011;45960;53.630;55.972;2022-10-16T01:34:33;11.57;;;3.63;;
60086;SDS011;45960;53.630;55.972;2022-10-16T01:35:44;7.75;;;3.75;;
60086;SDS011;45960;53.630;55.972;2022-10-16T01:38:04;11.98;;;3.78;;
60086;SDS011;45960;53.630;55.972;2022-10-16T01:39:28;10.50;;;4.20;;
60086;SDS011;45960;53.630;55.972;2022-10-16T01:40:32;9.88;;;4.10;;
60086;SDS011;45960;53.630;55.972;2022-10-16T01:41:38;7.10;;;3.92;;
60086;SDS011;45960;53.630;55.972;2022-10-16T01:42:53;10.25;;;3.92;;
60086;SDS011;45960;53.630;55.972;2022-10-16T01:44:19;7.47;;;4.05;;
60086;SDS011;45960;53.630;55.972;2022-10-16T01:45:25;11.10;;;3.95;;
60086;SDS011;45960;53.630;55.972;2022-10-16T01:46:31;8.15;;;3.58;;
60086;SDS011;45960;53.630;55.972;2022-10-16T01:47:34;5.88;;;3.40;;
60086;SDS011;45960;53.630;55.972;2022-10-16T01:48:36;9.10;;;3.83;;
60086;SDS011;45960;53.630;55.972;2022-10-16T01:49:39;8.30;;;3.97;;
60086;SDS011;45960;53.630;55.972;2022-10-16T01:50:43;7.53;;;4.30;;
60086;SDS011;45960;53.630;55.972;2022-10-16T01:51:50;9.85;;;3.92;;
60086;SDS011;45960;53.630;55.972;2022-10-16T01:52:57;11.48;;;4.60;;
60086;SDS011;45960;53.630;55.972;2022-10-16T01:53:59;10.25;;;4.40;;
60086;SDS011;45960;53.630;55.972;2022-10-16T01:55:03;10.43;;;4.35;;
60086;SDS011;45960;53.630;55.972;2022-10-16T01:56:08;7.35;;;3.97;;
60086;SDS011;45960;53.630;55.972;2022-10-16T01:57:12;6.05;;;3.90;;
60086;SDS011;45960;53.630;55.972;2022-10-16T01:58:14;8.25;;;4.25;;
60086;SDS011;45960;53.630;55.972;2022-10-16T01:59:16;9.32;;;4.13;;
60086;SDS011;45960;53.630;55.972;2022-10-16T02:00:20;11.65;;;4.07;;
60086;SDS011;45960;53.630;55.972;2022-10-16T02:01:24;9.13;;;4.10;;
60086;SDS011;45960;53.630;55.972;2022-10-16T02:02:37;10.05;;;3.63;;
60086;SDS011;45960;53.630;55.972;2022-10-16T02:03:42;8.35;;;4.00;;
60086;SDS011;45960;53.630;55.972;2022-10-16T02:04:48;7.60;;;3.78;;
60086;SDS011;45960;53.630;55.972;2022-10-16T02:05:54;8.02;;;4.20;;
60086;SDS011;45960;53.630;55.972;2022-10-16T02:06:57;9.13;;;3.42;;
60086;SDS011;45960;53.630;55.972;2022-10-16T02:07:58;8.18;;;3.78;;
60086;SDS011;45960;53.630;55.972;2022-10-16T02:09:00;10.60;;;4.07;;
60086;SDS011;45960;53.630;55.972;2022-10-16T02:10:01;10.15;;;3.55;;
60086;SDS011;45960;53.630;55.972;2022-10-16T02:11:02;9.60;;;3.70;;
60086;SDS011;45960;53.630;55.972;2022-10-16T02:12:11;9.05;;;4.13;;
60086;SDS011;45960;53.630;55.972;2022-10-16T02:13:21;7.97;;;3.58;;
60086;SDS011;45960;53.630;55.972;2022-10-16T02:14:26;10.02;;;3.83;;
60086;SDS011;45960;53.630;55.972;2022-10-16T02:15:28;8.90;;;3.72;;
60086;SDS011;45960;53.630;55.972;2022-10-16T02:16:33;8.35;;;3.53;;
60086;SDS011;45960;53.630;55.972;2022-10-16T02:17:36;6.10;;;3.60;;
60086;SDS011;45960;53.630;55.972;2022-10-16T02:18:37;7.38;;;3.70;;
60086;SDS011;45960;53.630;55.972;2022-10-16T02:19:39;6.60;;;3.63;;
60086;SDS011;45960;53.630;55.972;2022-10-16T02:20:48;9.38;;;3.15;;
60086;SDS011;45960;53.630;55.972;2022-10-16T02:21:57;6.43;;;3.50;;
60086;SDS011;45960;53.630;55.972;2022-10-16T02:23:04;8.18;;;3.40;;
60086;SDS011;45960;53.630;55.972;2022-10-16T02:24:53;10.60;;;3.70;;
60086;SDS011;45960;53.630;55.972;2022-10-16T02:25:37;8.20;;;4.05;;
60086;SDS011;45960;53.630;55.972;2022-10-16T02:27:03;8.25;;;3.38;;
60086;SDS011;45960;53.630;55.972;2022-10-16T02:28:16;7.55;;;3.72;;
60086;SDS011;45960;53.630;55.972;2022-10-16T02:29:25;8.95;;;3.90;;
60086;SDS011;45960;53.630;55.972;2022-10-16T02:30:28;9.18;;;4.00;;
60086;SDS011;45960;53.630;55.972;2022-10-16T02:31:35;7.32;;;3.80;;
60086;SDS011;45960;53.630;55.972;2022-10-16T02:32:39;7.03;;;3.25;;
60086;SDS011;45960;53.630;55.972;2022-10-16T02:33:44;8.65;;;3.63;;
60086;SDS011;45960;53.630;55.972;2022-10-16T02:34:47;7.22;;;4.35;;
60086;SDS011;45960;53.630;55.972;2022-10-16T02:35:49;6.47;;;3.75;;
60086;SDS011;45960;53.630;55.972;2022-10-16T02:36:51;8.40;;;3.83;;
60086;SDS011;45960;53.630;55.972;2022-10-16T02:37:53;6.50;;;3.47;;
60086;SDS011;45960;53.630;55.972;2022-10-16T02:38:56;5.95;;;3.72;;
60086;SDS011;45960;53.630;55.972;2022-10-16T02:39:58;6.60;;;2.97;;
60086;SDS011;45960;53.630;55.972;2022-10-16T02:40:59;9.10;;;3.42;;
60086;SDS011;45960;53.630;55.972;2022-10-16T02:42:01;6.85;;;3.30;;
60086;SDS011;45960;53.630;55.972;2022-10-16T02:43:03;6.25;;;3.50;;
60086;SDS011;45960;53.630;55.972;2022-10-16T02:44:05;7.97;;;3.35;;
60086;SDS011;45960;53.630;55.972;2022-10-16T02:45:06;8.68;;;3.28;;
60086;SDS011;45960;53.630;55.972;2022-10-16T02:46:09;6.40;;;3.40;;
60086;SDS011;45960;53.630;55.972;2022-10-16T02:47:10;7.97;;;4.13;;
60086;SDS011;45960;53.630;55.972;2022-10-16T02:48:12;10.68;;;4.28;;
60086;SDS011;45960;53.630;55.972;2022-10-16T02:49:13;8.70;;;3.88;;
60086;SDS011;45960;53.630;55.972;2022-10-16T02:50:14;12.68;;;4.70;;
60086;SDS011;45960;53.630;55.972;2022-10-16T02:51:15;12.38;;;4.72;;
60086;SDS011;45960;53.630;55.972;2022-10-16T02:52:16;9.30;;;4.60;;
60086;SDS011;45960;53.630;55.972;2022-10-16T02:53:17;13.18;;;5.25;;
60086;SDS011;45960;53.630;55.972;2022-10-16T02:54:18;11.88;;;3.85;;
60086;SDS011;45960;53.630;55.972;2022-10-16T02:55:19;7.70;;;3.55;;
60086;SDS011;45960;53.630;55.972;2022-10-16T02:56:21;9.30;;;3.50;;
60086;SDS011;45960;53.630;55.972;2022-10-16T02:57:22;8.63;;;3.78;;
60086;SDS011;45960;53.630;55.972;2022-10-16T02:58:23;6.30;;;2.78;;
60086;SDS011;45960;53.630;55.972;2022-10-16T02:59:24;5.00;;;2.83;;
60086;SDS011;45960;53.630;55.972;2022-10-16T03:00:25;8.90;;;3.58;;
60086;SDS011;45960;53.630;55.972;2022-10-16T03:01:26;6.82;;;3.17;;
60086;SDS011;45960;53.630;55.972;2022-10-16T03:02:27;6.57;;;2.80;;
60086;SDS011;45960;53.630;55.972;2022-10-16T03:03:28;5.05;;;2.67;;
60086;SDS011;45960;53.630;55.972;2022-10-16T03:04:29;6.03;;;2.90;;
60086;SDS011;45960;53.630;55.972;2022-10-16T03:05:30;6.90;;;2.92;;
60086;SDS011;45960;53.630;55.972;2022-10-16T03:06:31;5.47;;;2.85;;
60086;SDS011;45960;53.630;55.972;2022-10-16T03:07:32;7.00;;;2.95;;
60086;SDS011;45960;53.630;55.972;2022-10-16T03:08:33;6.28;;;3.05;;
60086;SDS011;45960;53.630;55.972;2022-10-16T03:09:34;4.63;;;2.42;;
60086;SDS011;45960;53.630;55.972;2022-10-16T03:10:35;6.20;;;2.90;;
60086;SDS011;45960;53.630;55.972;2022-10-16T03:11:36;6.25;;;2.55;;
60086;SDS011;45960;53.630;55.972;2022-10-16T03:12:40;6.45;;;2.63;;
60086;SDS011;45960;53.630;55.972;2022-10-16T03:13:43;5.22;;;2.53;;
60086;SDS011;45960;53.630;55.972;2022-10-16T03:14:44;3.78;;;2.42;;
60086;SDS011;45960;53.630;55.972;2022-10-16T03:15:45;7.78;;;2.65;;
60086;SDS011;45960;53.630;55.972;2022-10-16T03:16:46;5.28;;;2.58;;
60086;SDS011;45960;53.630;55.972;2022-10-16T03:17:47;5.43;;;2.33;;
60086;SDS011;45960;53.630;55.972;2022-10-16T03:18:48;4.05;;;2.17;;
60086;SDS011;45960;53.630;55.972;2022-10-16T03:19:50;4.75;;;2.20;;
60086;SDS011;45960;53.630;55.972;2022-10-16T03:20:51;5.18;;;2.40;;
60086;SDS011;45960;53.630;55.972;2022-10-16T03:21:52;6.82;;;2.50;;
60086;SDS011;45960;53.630;55.972;2022-10-16T03:22:53;3.38;;;2.08;;
60086;SDS011;45960;53.630;55.972;2022-10-16T03:23:54;8.68;;;2.72;;
60086;SDS011;45960;53.630;55.972;2022-10-16T03:24:55;13.52;;;2.45;;
60086;SDS011;45960;53.630;55.972;2022-10-16T03:25:56;13.93;;;2.30;;
60086;SDS011;45960;53.630;55.972;2022-10-16T03:26:57;5.13;;;2.05;;
60086;SDS011;45960;53.630;55.972;2022-10-16T03:27:58;4.88;;;2.28;;
60086;SDS011;45960;53.630;55.972;2022-10-16T03:28:59;4.10;;;2.33;;
60086;SDS011;45960;53.630;55.972;2022-10-16T03:30:03;8.50;;;2.50;;
60086;SDS011;45960;53.630;55.972;2022-10-16T03:31:10;8.82;;;2.50;;
60086;SDS011;45960;53.630;55.972;2022-10-16T03:32:11;4.50;;;2.45;;
60086;SDS011;45960;53.630;55.972;2022-10-16T03:33:12;2.83;;;2.15;;
60086;SDS011;45960;53.630;55.972;2022-10-16T03:34:13;4.00;;;2.25;;
60086;SDS011;45960;53.630;55.972;2022-10-16T03:35:14;4.75;;;2.10;;
60086;SDS011;45960;53.630;55.972;2022-10-16T03:36:15;5.05;;;3.10;;
60086;SDS011;45960;53.630;55.972;2022-10-16T03:37:18;6.85;;;2.47;;
60086;SDS011;45960;53.630;55.972;2022-10-16T03:38:29;8.48;;;2.95;;
60086;SDS011;45960;53.630;55.972;2022-10-16T03:39:34;5.65;;;2.53;;
60086;SDS011;45960;53.630;55.972;2022-10-16T03:40:40;13.07;;;3.10;;
60086;SDS011;45960;53.630;55.972;2022-10-16T03:41:42;3.65;;;2.78;;
60086;SDS011;45960;53.630;55.972;2022-10-16T03:42:44;6.35;;;2.90;;
60086;SDS011;45960;53.630;55.972;2022-10-16T03:43:45;4.70;;;3.10;;
60086;SDS011;45960;53.630;55.972;2022-10-16T03:44:46;5.28;;;3.20;;
60086;SDS011;45960;53.630;55.972;2022-10-16T03:45:47;5.57;;;3.47;;
60086;SDS011;45960;53.630;55.972;2022-10-16T03:46:48;4.47;;;3.63;;
60086;SDS011;45960;53.630;55.972;2022-10-16T03:47:49;5.35;;;3.47;;
60086;SDS011;45960;53.630;55.972;2022-10-16T03:48:50;4.50;;;3.47;;
60086;SDS011;45960;53.630;55.972;2022-10-16T03:49:51;5.68;;;3.50;;
60086;SDS011;45960;53.630;55.972;2022-10-16T03:50:52;5.35;;;3.72;;
60086;SDS011;45960;53.630;55.972;2022-10-16T03:51:53;7.47;;;4.32;;
60086;SDS011;45960;53.630;55.972;2022-10-16T03:52:54;5.65;;;4.32;;
60086;SDS011;45960;53.630;55.972;2022-10-16T03:53:55;11.43;;;4.35;;
60086;SDS011;45960;53.630;55.972;2022-10-16T03:54:57;8.77;;;4.30;;
60086;SDS011;45960;53.630;55.972;2022-10-16T03:55:58;7.65;;;4.90;;
60086;SDS011;45960;53.630;55.972;2022-10-16T03:56:59;5.43;;;4.00;;
60086;SDS011;45960;53.630;55.972;2022-10-16T03:58:00;8.38;;;4.30;;
60086;SDS011;45960;53.630;55.972;2022-10-16T03:59:01;10.93;;;5.03;;
60086;SDS011;45960;53.630;55.972;2022-10-16T04:00:02;6.88;;;4.80;;
60086;SDS011;45960;53.630;55.972;2022-10-16T04:01:21;8.00;;;5.50;;
60086;SDS011;45960;53.630;55.972;2022-10-16T04:03:00;9.55;;;5.35;;
60086;SDS011;45960;53.630;55.972;2022-10-16T04:04:01;11.57;;;5.90;;
60086;SDS011;45960;53.630;55.972;2022-10-16T04:07:23;10.50;;;6.03;;
60086;SDS011;45960;53.630;55.972;2022-10-16T04:08:36;12.95;;;6.55;;
60086;SDS011;45960;53.630;55.972;2022-10-16T04:10:01;11.45;;;7.03;;
60086;SDS011;45960;53.630;55.972;2022-10-16T04:12:43;13.07;;;6.72;;
60086;SDS011;45960;53.630;55.972;2022-10-16T04:13:49;8.82;;;6.22;;
60086;SDS011;45960;53.630;55.972;2022-10-16T04:16:12;8.30;;;5.20;;
60086;SDS011;45960;53.630;55.972;2022-10-16T04:19:18;6.93;;;4.38;;
60086;SDS011;45960;53.630;55.972;2022-10-16T04:21:07;6.50;;;4.32;;
60086;SDS011;45960;53.630;55.972;2022-10-16T04:22:08;7.25;;;4.13;;
60086;SDS011;45960;53.630;55.972;2022-10-16T04:23:10;5.72;;;4.15;;
60086;SDS011;45960;53.630;55.972;2022-10-16T04:24:11;5.32;;;3.63;;
60086;SDS011;45960;53.630;55.972;2022-10-16T04:25:12;6.53;;;4.50;;
60086;SDS011;45960;53.630;55.972;2022-10-16T04:26:13;5.28;;;3.45;;
60086;SDS011;45960;53.630;55.972;2022-10-16T04:27:14;6.85;;;4.15;;
60086;SDS011;45960;53.630;55.972;2022-10-16T04:28:27;5.78;;;3.50;;
60086;SDS011;45960;53.630;55.972;2022-10-16T04:29:28;7.82;;;3.67;;
60086;SDS011;45960;53.630;55.972;2022-10-16T04:30:29;5.32;;;3.58;;
60086;SDS011;45960;53.630;55.972;2022-10-16T04:31:31;8.05;;;3.40;;
60086;SDS011;45960;53.630;55.972;2022-10-16T04:32:32;6.93;;;3.97;;
60086;SDS011;45960;53.630;55.972;2022-10-16T04:33:33;4.32;;;3.20;;
60086;SDS011;45960;53.630;55.972;2022-10-16T04:34:34;6.60;;;3.85;;
60086;SDS011;45960;53.630;55.972;2022-10-16T04:35:35;6.82;;;4.07;;
60086;SDS011;45960;53.630;55.972;2022-10-16T04:36:36;6.20;;;3.78;;
60086;SDS011;45960;53.630;55.972;2022-10-16T04:37:37;5.45;;;3.85;;
60086;SDS011;45960;53.630;55.972;2022-10-16T04:38:39;6.75;;;3.90;;
60086;SDS011;45960;53.630;55.972;2022-10-16T04:39:40;8.73;;;3.83;;
60086;SDS011;45960;53.630;55.972;2022-10-16T04:40:41;7.75;;;4.05;;
60086;SDS011;45960;53.630;55.972;2022-10-16T04:41:43;5.05;;;3.53;;
60086;SDS011;45960;53.630;55.972;2022-10-16T04:42:44;5.97;;;3.63;;
60086;SDS011;45960;53.630;55.972;2022-10-16T04:43:45;5.82;;;4.15;;
60086;SDS011;45960;53.630;55.972;2022-10-16T04:44:46;7.28;;;5.22;;
60086;SDS011;45960;53.630;55.972;2022-10-16T04:45:47;8.15;;;5.28;;
60086;SDS011;45960;53.630;55.972;2022-10-16T04:46:51;11.07;;;6.40;;
60086;SDS011;45960;53.630;55.972;2022-10-16T04:47:52;10.82;;;6.63;;
60086;SDS011;45960;53.630;55.972;2022-10-16T04:48:53;9.60;;;7.65;;
60086;SDS011;45960;53.630;55.972;2022-10-16T04:49:54;10.27;;;8.60;;
60086;SDS011;45960;53.630;55.972;2022-10-16T04:50:55;11.60;;;9.27;;
60086;SDS011;45960;53.630;55.972;2022-10-16T04:51:56;13.80;;;9.30;;
60086;SDS011;45960;53.630;55.972;2022-10-16T04:52:57;14.02;;;8.82;;
60086;SDS011;45960;53.630;55.972;2022-10-16T04:53:58;15.32;;;9.98;;
60086;SDS011;45960;53.630;55.972;2022-10-16T04:54:59;11.57;;;9.23;;
60086;SDS011;45960;53.630;55.972;2022-10-16T04:56:03;12.38;;;9.45;;
60086;SDS011;45960;53.630;55.972;2022-10-16T04:57:04;11.85;;;8.95;;
60086;SDS011;45960;53.630;55.972;2022-10-16T04:58:05;14.88;;;9.30;;
60086;SDS011;45960;53.630;55.972;2022-10-16T04:59:06;11.88;;;8.77;;
60086;SDS011;45960;53.630;55.972;2022-10-16T05:00:07;10.10;;;7.60;;
60086;SDS011;45960;53.630;55.972;2022-10-16T05:01:09;10.32;;;7.95;;
60086;SDS011;45960;53.630;55.972;2022-10-16T05:02:10;11.57;;;7.90;;
60086;SDS011;45960;53.630;55.972;2022-10-16T05:03:11;10.65;;;7.93;;
60086;SDS011;45960;53.630;55.972;2022-10-16T05:04:13;10.88;;;8.50;;
60086;SDS011;45960;53.630;55.972;2022-10-16T05:05:15;15.68;;;8.90;;
60086;SDS011;45960;53.630;55.972;2022-10-16T05:06:16;14.95;;;9.38;;
60086;SDS011;45960;53.630;55.972;2022-10-16T05:07:17;15.57;;;9.38;;
60086;SDS011;45960;53.630;55.972;2022-10-16T05:08:19;13.40;;;9.38;;
60086;SDS011;45960;53.630;55.972;2022-10-16T05:09:20;16.15;;;10.40;;
60086;SDS011;45960;53.630;55.972;2022-10-16T05:10:21;17.33;;;10.30;;
60086;SDS011;45960;53.630;55.972;2022-10-16T05:11:22;10.93;;;7.90;;
60086;SDS011;45960;53.630;55.972;2022-10-16T05:12:23;11.30;;;8.43;;
60086;SDS011;45960;53.630;55.972;2022-10-16T05:13:24;13.30;;;9.15;;
60086;SDS011;45960;53.630;55.972;2022-10-16T05:14:25;13.25;;;8.55;;
60086;SDS011;45960;53.630;55.972;2022-10-16T05:15:27;10.75;;;7.85;;
60086;SDS011;45960;53.630;55.972;2022-10-16T05:16:29;10.18;;;7.30;;
60086;SDS011;45960;53.630;55.972;2022-10-16T05:17:31;12.70;;;7.32;;
60086;SDS011;45960;53.630;55.972;2022-10-16T05:18:32;10.68;;;7.38;;
60086;SDS011;45960;53.630;55.972;2022-10-16T05:19:33;11.15;;;6.60;;
60086;SDS011;45960;53.630;55.972;2022-10-16T05:20:34;10.85;;;6.55;;
60086;SDS011;45960;53.630;55.972;2022-10-16T05:21:35;9.00;;;6.57;;
60086;SDS011;45960;53.630;55.972;2022-10-16T05:22:36;7.75;;;5.35;;
60086;SDS011;45960;53.630;55.972;2022-10-16T05:23:37;8.48;;;6.10;;
60086;SDS011;45960;53.630;55.972;2022-10-16T05:24:38;8.52;;;5.80;;
60086;SDS011;45960;53.630;55.972;2022-10-16T05:25:39;8.38;;;5.93;;
60086;SDS011;45960;53.630;55.972;2022-10-16T05:26:40;8.77;;;5.10;;
60086;SDS011;45960;53.630;55.972;2022-10-16T05:27:42;11.60;;;5.57;;
60086;SDS011;45960;53.630;55.972;2022-10-16T05:28:43;10.32;;;5.65;;
60086;SDS011;45960;53.630;55.972;2022-10-16T05:29:47;6.57;;;4.60;;
60086;SDS011;45960;53.630;55.972;2022-10-16T05:30:48;7.05;;;4.72;;
60086;SDS011;45960;53.630;55.972;2022-10-16T05:31:50;7.10;;;4.20;;
60086;SDS011;45960;53.630;55.972;2022-10-16T05:32:54;6.97;;;4.50;;
60086;SDS011;45960;53.630;55.972;2022-10-16T05:33:59;8.10;;;5.00;;
60086;SDS011;45960;53.630;55.972;2022-10-16T05:35:00;6.20;;;4.60;;
60086;SDS011;45960;53.630;55.972;2022-10-16T05:36:05;5.50;;;4.15;;
60086;SDS011;45960;53.630;55.972;2022-10-16T05:37:08;6.57;;;4.10;;
60086;SDS011;45960;53.630;55.972;2022-10-16T05:38:09;5.95;;;3.88;;
60086;SDS011;45960;53.630;55.972;2022-10-16T05:39:10;7.70;;;4.43;;
60086;SDS011;45960;53.630;55.972;2022-10-16T05:40:12;8.52;;;4.13;;
60086;SDS011;45960;53.630;55.972;2022-10-16T05:41:13;5.68;;;3.95;;
60086;SDS011;45960;53.630;55.972;2022-10-16T05:42:15;5.43;;;3.95;;
60086;SDS011;45960;53.630;55.972;2022-10-16T05:43:16;5.00;;;3.67;;
60086;SDS011;45960;53.630;55.972;2022-10-16T05:44:17;6.93;;;3.67;;
60086;SDS011;45960;53.630;55.972;2022-10-16T05:45:18;6.28;;;3.45;;
60086;SDS011;45960;53.630;55.972;2022-10-16T05:46:19;6.90;;;3.70;;
60086;SDS011;45960;53.630;55.972;2022-10-16T05:47:20;6.45;;;3.90;;
60086;SDS011;45960;53.630;55.972;2022-10-16T05:48:21;4.95;;;3.20;;
60086;SDS011;45960;53.630;55.972;2022-10-16T05:49:23;5.60;;;3.97;;
60086;SDS011;45960;53.630;55.972;2022-10-16T05:50:25;7.50;;;3.80;;
60086;SDS011;45960;53.630;55.972;2022-10-16T05:51:26;5.78;;;3.92;;
60086;SDS011;45960;53.630;55.972;2022-10-16T05:52:27;7.95;;;4.38;;
60086;SDS011;45960;53.630;55.972;2022-10-16T05:53:29;6.00;;;3.72;;
60086;SDS011;45960;53.630;55.972;2022-10-16T05:54:32;9.90;;;5.15;;
60086;SDS011;45960;53.630;55.972;2022-10-16T05:55:33;26.88;;;23.75;;
60086;SDS011;45960;53.630;55.972;2022-10-16T05:56:34;21.27;;;18.27;;
60086;SDS011;45960;53.630;55.972;2022-10-16T05:57:36;10.77;;;7.57;;
60086;SDS011;45960;53.630;55.972;2022-10-16T05:58:37;13.93;;;5.28;;
60086;SDS011;45960;53.630;55.972;2022-10-16T05:59:40;8.23;;;5.90;;
60086;SDS011;45960;53.630;55.972;2022-10-16T06:00:42;9.50;;;6.63;;
60086;SDS011;45960;53.630;55.972;2022-10-16T06:01:42;11.80;;;6.75;;
60086;SDS011;45960;53.630;55.972;2022-10-16T06:02:44;16.15;;;6.55;;
60086;SDS011;45960;53.630;55.972;2022-10-16T06:03:45;10.00;;;5.97;;
60086;SDS011;45960;53.630;55.972;2022-10-16T06:04:46;11.27;;;7.50;;
60086;SDS011;45960;53.630;55.972;2022-10-16T06:05:47;9.57;;;6.40;;
60086;SDS011;45960;53.630;55.972;2022-10-16T06:06:48;10.68;;;5.70;;
60086;SDS011;45960;53.630;55.972;2022-10-16T06:07:49;9.10;;;5.20;;
60086;SDS011;45960;53.630;55.972;2022-10-16T06:08:50;9.88;;;4.72;;
60086;SDS011;45960;53.630;55.972;2022-10-16T06:09:51;8.05;;;4.32;;
60086;SDS011;45960;53.630;55.972;2022-10-16T06:11:03;7.43;;;4.47;;
60086;SDS011;45960;53.630;55.972;2022-10-16T06:12:05;5.35;;;3.65;;
60086;SDS011;45960;53.630;55.972;2022-10-16T06:13:06;5.53;;;3.88;;
60086;SDS011;45960;53.630;55.972;2022-10-16T06:14:07;5.25;;;3.58;;
60086;SDS011;45960;53.630;55.972;2022-10-16T06:15:09;5.57;;;4.00;;
60086;SDS011;45960;53.630;55.972;2022-10-16T06:16:10;6.28;;;4.07;;
60086;SDS011;45960;53.630;55.972;2022-10-16T06:17:12;9.27;;;4.18;;
60086;SDS011;45960;53.630;55.972;2022-10-16T06:18:14;6.60;;;3.70;;
60086;SDS011;45960;53.630;55.972;2022-10-16T06:19:15;7.18;;;4.15;;
60086;SDS011;45960;53.630;55.972;2022-10-16T06:20:17;8.35;;;4.18;;
60086;SDS011;45960;53.630;55.972;2022-10-16T06:21:19;4.97;;;3.40;;
60086;SDS011;45960;53.630;55.972;2022-10-16T06:22:22;4.63;;;3.58;;
60086;SDS011;45960;53.630;55.972;2022-10-16T06:23:23;6.38;;;3.08;;
60086;SDS011;45960;53.630;55.972;2022-10-16T06:24:25;4.20;;;2.97;;
60086;SDS011;45960;53.630;55.972;2022-10-16T06:25:26;8.05;;;3.80;;
60086;SDS011;45960;53.630;55.972;2022-10-16T06:26:27;9.20;;;4.03;;
60086;SDS011;45960;53.630;55.972;2022-10-16T06:27:29;11.52;;;3.88;;
60086;SDS011;45960;53.630;55.972;2022-10-16T06:28:30;7.07;;;3.40;;
60086;SDS011;45960;53.630;55.972;2022-10-16T06:29:31;7.18;;;3.92;;
60086;SDS011;45960;53.630;55.972;2022-10-16T06:30:32;8.25;;;4.10;;
60086;SDS011;45960;53.630;55.972;2022-10-16T06:31:34;9.32;;;4.65;;
60086;SDS011;45960;53.630;55.972;2022-10-16T06:32:35;6.68;;;4.68;;
60086;SDS011;45960;53.630;55.972;2022-10-16T06:33:36;11.18;;;5.50;;
60086;SDS011;45960;53.630;55.972;2022-10-16T06:34:37;8.75;;;5.05;;
60086;SDS011;45960;53.630;55.972;2022-10-16T06:35:40;12.05;;;5.82;;
60086;SDS011;45960;53.630;55.972;2022-10-16T06:36:41;9.45;;;6.78;;
60086;SDS011;45960;53.630;55.972;2022-10-16T06:37:43;16.42;;;6.03;;